Time;durP1;ratioP1;P1;durP2;ratioP2;P2;SDS_P1;SDS_P2;PMS_P1;PMS_P2;Temp;Humidity;BMP_temperature;BMP_pressure;BME280_temperature;BME280_humidity;BME280_pressure;Samples;Min_cycle;Max_cycle;Signal;HPM_P1;HPM_P2
2023/06/13 00:00:46;;;;;;;6.03;4.40;;;;;;;19.05;49.29;98283.47;4983819;28;103368;-76
2023/06/13 00:03:14;;;;;;;4.22;3.83;;;;;;;19.35;48.43;98285.31;4984286;28;102852;-76
2023/06/13 00:05:45;;;;;;;4.07;3.67;;;;;;;19.48;47.89;98282.09;4984555;28;102993;-76
2023/06/13 00:08:17;;;;;;;3.73;3.43;;;;;;;19.65;47.33;98283.63;4987628;28;103195;-76
2023/06/13 00:10:46;;;;;;;3.78;3.42;;;;;;;19.66;47.65;98290.69;4983801;28;103612;-76
2023/06/13 00:13:15;;;;;;;4.07;3.78;;;;;;;19.32;47.87;98292.84;4987799;28;103002;-76
2023/06/13 00:15:50;;;;;;;3.72;3.42;;;;;;;19.10;48.39;98284.59;4987610;28;103753;-76
2023/06/13 00:18:19;;;;;;;4.45;3.85;;;;;;;18.72;50.14;98285.44;4970219;28;103325;-76
2023/06/13 00:20:47;;;;;;;4.17;3.77;;;;;;;19.01;48.75;98290.16;4982443;28;103292;-76
2023/06/13 00:23:15;;;;;;;4.60;4.20;;;;;;;18.03;50.67;98285.16;4986921;28;102650;-76
2023/06/13 00:25:43;;;;;;;4.25;3.85;;;;;;;18.61;49.96;98285.75;4989467;28;103190;-76
2023/06/13 00:28:11;;;;;;;4.30;3.70;;;;;;;18.34;50.93;98281.63;4987448;28;103195;-77
2023/06/13 00:30:42;;;;;;;4.53;4.13;;;;;;;18.75;50.08;98284.25;4984582;28;103160;-76
2023/06/13 00:33:16;;;;;;;4.57;4.17;;;;;;;17.83;51.45;98285.47;4988043;28;102522;-75
2023/06/13 00:35:46;;;;;;;4.70;4.30;;;;;;;17.81;51.83;98292.84;4988092;28;103310;-75
2023/06/13 00:38:17;;;;;;;3.25;2.92;;;;;;;18.60;50.01;98281.44;4982265;28;103290;-75
2023/06/13 00:40:46;;;;;;;4.53;3.90;;;;;;;18.67;50.05;98287.75;4986492;28;103327;-75
2023/06/13 00:43:14;;;;;;;4.73;4.33;;;;;;;18.44;50.16;98278.78;4986268;28;103127;-76
2023/06/13 00:45:42;;;;;;;5.13;4.30;;;;;;;18.26;50.52;98291.50;4971541;28;103121;-74
2023/06/13 00:48:12;;;;;;;4.30;3.90;;;;;;;18.53;50.34;98275.94;4968709;28;103222;-75
2023/06/13 00:50:44;;;;;;;3.80;3.50;;;;;;;18.68;49.69;98273.38;4985400;28;103235;-75
2023/06/13 00:53:16;;;;;;;4.75;4.28;;;;;;;18.19;50.84;98279.81;4968629;28;102798;-75
2023/06/13 00:55:46;;;;;;;4.93;4.10;;;;;;;18.30;50.62;98276.78;4984608;28;102792;-75
2023/06/13 00:58:16;;;;;;;3.22;3.00;;;;;;;18.78;49.21;98279.34;4973746;28;103824;-76
2023/06/13 01:00:45;;;;;;;4.75;4.35;;;;;;;18.59;50.40;98279.75;4967023;28;104829;-76
2023/06/13 01:03:16;;;;;;;4.87;4.37;;;;;;;17.47;52.32;98275.22;4985617;28;102963;-75
2023/06/13 01:05:46;;;;;;;4.32;3.92;;;;;;;18.01;51.56;98279.13;4983065;28;104425;-75
2023/06/13 01:08:18;;;;;;;3.85;3.55;;;;;;;18.32;50.75;98278.28;4981789;28;103697;-75
2023/06/13 01:10:52;;;;;;;3.60;3.30;;;;;;;18.72;49.49;98268.53;4988156;28;103834;-75
2023/06/13 01:13:28;;;;;;;6.03;4.70;;;;;;;17.93;51.31;98267.47;4986332;28;102705;-75
2023/06/13 01:16:04;;;;;;;4.68;4.28;;;;;;;18.09;51.04;98269.28;4984118;28;102750;-75
2023/06/13 01:18:38;;;;;;;4.13;3.83;;;;;;;18.51;50.10;98266.41;4966476;28;103926;-76
2023/06/13 01:21:08;;;;;;;3.95;3.65;;;;;;;18.22;50.48;98268.75;4971755;28;103237;-76
2023/06/13 01:23:41;;;;;;;5.88;4.35;;;;;;;17.43;53.12;98264.06;4965927;28;103679;-75
2023/06/13 01:26:14;;;;;;;4.77;4.37;;;;;;;17.46;52.56;98263.69;4970270;28;102945;-76
2023/06/13 01:28:44;;;;;;;5.97;4.53;;;;;;;17.43;53.04;98258.72;4982125;28;103904;-75
2023/06/13 01:31:16;;;;;;;4.60;4.20;;;;;;;17.23;53.96;98263.50;4983196;28;103339;-76
2023/06/13 01:33:45;;;;;;;4.87;4.20;;;;;;;17.59;52.60;98258.75;4983955;28;104328;-76
2023/06/13 01:36:13;;;;;;;4.82;4.32;;;;;;;17.66;52.37;98250.91;4966011;28;104146;-75
2023/06/13 01:38:41;;;;;;;4.40;4.00;;;;;;;17.72;52.27;98251.06;4983558;28;103443;-73
2023/06/13 01:41:09;;;;;;;3.10;2.90;;;;;;;17.84;51.34;98246.25;4985473;28;103316;-75
2023/06/13 01:43:37;;;;;;;4.65;4.25;;;;;;;17.60;52.42;98260.41;4990077;28;102637;-75
2023/06/13 01:46:13;;;;;;;4.30;3.90;;;;;;;17.88;51.63;98253.75;4964806;28;102751;-74
2023/06/13 01:48:50;;;;;;;4.15;3.78;;;;;;;18.15;51.11;98257.09;4985018;28;103317;-74
2023/06/13 01:51:25;;;;;;;4.93;3.67;;;;;;;18.09;51.42;98249.72;4984719;28;103269;-74
2023/06/13 01:53:55;;;;;;;4.18;3.88;;;;;;;17.69;52.40;98255.91;4967913;28;102898;-74
2023/06/13 01:56:28;;;;;;;4.68;4.28;;;;;;;17.36;53.02;98253.19;4968240;28;104125;-74
2023/06/13 01:58:58;;;;;;;4.70;4.10;;;;;;;17.70;51.77;98239.72;4982616;28;103621;-74
2023/06/13 02:01:30;;;;;;;4.28;3.92;;;;;;;17.52;52.33;98239.00;4967124;28;103231;-74
2023/06/13 02:03:59;;;;;;;4.35;3.95;;;;;;;17.36;52.50;98236.31;4981633;28;102902;-74
2023/06/13 02:06:28;;;;;;;4.80;4.40;;;;;;;17.47;52.30;98237.84;4971030;28;102798;-74
2023/06/13 02:08:57;;;;;;;4.72;4.15;;;;;;;17.01;53.27;98244.59;4983386;28;103408;-75
2023/06/13 02:11:26;;;;;;;5.05;3.95;;;;;;;17.02;53.43;98235.56;4984366;28;103973;-74
2023/06/13 02:13:55;;;;;;;4.20;3.80;;;;;;;17.01;53.44;98241.91;4984184;28;102996;-74
2023/06/13 02:16:25;;;;;;;7.40;4.45;;;;;;;16.63;54.25;98244.09;4981968;28;102604;-74
2023/06/13 02:18:55;;;;;;;4.88;4.40;;;;;;;16.20;56.17;98252.13;4986550;28;104249;-75
2023/06/13 02:21:23;;;;;;;4.75;4.32;;;;;;;16.09;56.68;98245.25;4983453;28;102927;-76
2023/06/13 02:23:51;;;;;;;6.23;4.10;;;;;;;16.46;55.64;98247.63;4987054;28;102997;-76
2023/06/13 02:26:19;;;;;;;4.75;4.15;;;;;;;16.87;54.19;98242.53;4984981;28;103588;-75
2023/06/13 02:28:48;;;;;;;4.07;3.63;;;;;;;17.21;53.52;98237.94;4965784;28;103259;-76
2023/06/13 02:31:17;;;;;;;4.03;3.53;;;;;;;17.23;53.54;98238.63;4985766;28;103698;-75
2023/06/13 02:33:45;;;;;;;3.60;3.30;;;;;;;17.52;52.37;98244.34;4984157;28;102719;-75
2023/06/13 02:36:14;;;;;;;4.00;3.70;;;;;;;17.53;52.69;98242.50;4985131;28;102598;-75
2023/06/13 02:38:42;;;;;;;4.88;3.95;;;;;;;17.48;53.22;98247.53;4984212;28;103203;-75
2023/06/13 02:41:11;;;;;;;4.05;3.72;;;;;;;17.54;52.53;98247.75;4974082;28;103356;-75
2023/06/13 02:43:39;;;;;;;5.10;4.20;;;;;;;17.40;53.40;98245.69;4968706;28;102719;-75
2023/06/13 02:46:10;;;;;;;5.35;4.20;;;;;;;16.97;54.00;98248.56;4985063;28;103911;-76
2023/06/13 02:48:41;;;;;;;4.47;4.07;;;;;;;16.66;55.25;98253.59;4962898;28;103231;-75
2023/06/13 02:51:11;;;;;;;4.90;4.40;;;;;;;16.44;55.85;98257.63;4985526;28;103249;-75
2023/06/13 02:53:40;;;;;;;4.87;4.00;;;;;;;16.07;56.99;98257.06;4984188;28;102903;-76
2023/06/13 02:56:08;;;;;;;5.67;4.53;;;;;;;15.78;57.83;98256.47;4985126;28;103279;-76
2023/06/13 02:58:36;;;;;;;4.80;4.07;;;;;;;15.88;58.25;98252.75;4984230;28;103579;-76
2023/06/13 03:01:04;;;;;;;4.13;3.72;;;;;;;16.48;56.54;98256.31;4985242;28;104014;-75
2023/06/13 03:03:34;;;;;;;4.43;4.03;;;;;;;16.49;56.15;98247.31;4971708;28;102789;-76
2023/06/13 03:06:04;;;;;;;4.40;4.00;;;;;;;15.79;58.27;98258.16;4967103;28;102833;-75
2023/06/13 03:08:37;;;;;;;4.85;4.10;;;;;;;15.25;60.17;98254.63;4983379;28;103053;-75
2023/06/13 03:11:09;;;;;;;5.23;4.23;;;;;;;15.36;60.00;98261.56;4983004;28;103815;-77
2023/06/13 03:13:40;;;;;;;4.43;4.03;;;;;;;15.23;60.39;98255.78;4982126;28;102659;-77
2023/06/13 03:16:08;;;;;;;5.47;4.70;;;;;;;15.33;60.00;98262.69;4965434;28;103717;-74
2023/06/13 03:18:36;;;;;;;4.78;4.38;;;;;;;15.52;59.60;98257.25;4968605;28;103963;-75
2023/06/13 03:21:05;;;;;;;4.50;4.10;;;;;;;15.47;59.55;98262.19;4966952;28;104274;-74
2023/06/13 03:23:33;;;;;;;4.75;4.25;;;;;;;15.48;59.77;98261.22;4969941;28;102698;-74
2023/06/13 03:26:03;;;;;;;5.18;4.05;;;;;;;15.22;60.80;98265.56;4985141;28;103782;-75
2023/06/13 03:28:32;;;;;;;5.47;4.37;;;;;;;15.10;61.02;98272.13;4984316;28;103196;-74
2023/06/13 03:31:03;;;;;;;4.75;4.25;;;;;;;14.95;61.50;98268.25;4985261;28;103452;-74
2023/06/13 03:33:35;;;;;;;5.22;3.80;;;;;;;14.86;62.43;98277.13;4969770;28;102672;-74
2023/06/13 03:36:07;;;;;;;4.88;4.30;;;;;;;14.79;62.36;98274.22;4966748;28;102939;-75
2023/06/13 03:38:35;;;;;;;4.95;4.38;;;;;;;14.83;62.15;98280.06;4964792;28;102936;-74
2023/06/13 03:41:04;;;;;;;6.57;4.20;;;;;;;14.87;62.18;98292.09;4978469;28;103245;-75
2023/06/13 03:43:34;;;;;;;5.53;4.05;;;;;;;15.00;61.96;98287.28;4985433;28;102604;-74
2023/06/13 03:46:03;;;;;;;7.28;4.00;;;;;;;15.06;61.91;98292.84;4967458;28;102677;-74
2023/06/13 03:48:31;;;;;;;6.18;4.00;;;;;;;15.43;60.48;98295.41;4984793;28;103907;-74
2023/06/13 03:51:02;;;;;;;4.30;3.90;;;;;;;15.73;58.81;98290.72;4981602;28;103133;-74
2023/06/13 03:53:29;;;;;;;4.45;4.05;;;;;;;15.79;59.14;98293.63;4981499;28;102885;-75
2023/06/13 03:55:57;;;;;;;4.67;4.13;;;;;;;15.65;60.12;98295.00;4984872;28;102948;-74
2023/06/13 03:58:26;;;;;;;5.72;4.38;;;;;;;15.45;60.30;98293.44;4984776;28;103943;-74
2023/06/13 04:00:55;;;;;;;4.63;4.20;;;;;;;15.68;59.81;98303.66;4982025;28;103251;-76
2023/06/13 04:03:23;;;;;;;4.70;4.03;;;;;;;15.60;60.19;98297.28;4976970;28;102622;-77
2023/06/13 04:05:51;;;;;;;5.13;4.20;;;;;;;15.40;60.88;98303.72;4977187;28;103277;-75
2023/06/13 04:08:19;;;;;;;4.85;4.30;;;;;;;14.97;62.23;98307.03;4982993;28;104084;-74
2023/06/13 04:10:47;;;;;;;6.07;4.30;;;;;;;15.68;61.85;98309.00;4982994;28;103892;-76
2023/06/13 04:13:15;;;;;;;6.38;4.40;;;;;;;15.33;61.10;98307.94;4985852;28;102862;-77
2023/06/13 04:15:43;;;;;;;4.28;3.70;;;;;;;15.51;61.27;98308.84;4981378;28;103976;-76
2023/06/13 04:18:17;;;;;;;5.07;3.72;;;;;;;15.59;60.04;98306.25;4983950;28;103253;-77
2023/06/13 04:20:46;;;;;;;4.38;3.67;;;;;;;15.58;61.31;98309.06;4984089;28;104314;-77
2023/06/13 04:23:14;;;;;;;4.20;3.80;;;;;;;15.39;61.79;98310.00;4986251;28;102920;-76
2023/06/13 04:25:43;;;;;;;4.28;3.63;;;;;;;15.63;61.41;98306.78;4983111;28;104086;-78
2023/06/13 04:28:13;;;;;;;5.47;3.47;;;;;;;15.77;61.22;98313.41;4972328;28;103965;-78
2023/06/13 04:30:41;;;;;;;4.07;3.50;;;;;;;15.74;61.75;98303.91;4971180;28;103051;-77
2023/06/13 04:33:16;;;;;;;4.45;3.65;;;;;;;15.74;60.18;98308.38;4982677;28;103331;-78
2023/06/13 04:35:46;;;;;;;5.93;3.83;;;;;;;15.74;60.13;98314.56;4985073;28;104150;-77
2023/06/13 04:38:15;;;;;;;4.93;3.90;;;;;;;15.75;60.44;98315.41;4983358;28;103292;-77
2023/06/13 04:40:43;;;;;;;4.75;3.97;;;;;;;15.92;58.96;98318.03;4984192;28;103157;-87
2023/06/13 04:43:14;;;;;;;4.30;3.53;;;;;;;16.15;59.05;98323.72;4985804;28;102507;-85
2023/06/13 04:45:43;;;;;;;4.07;3.50;;;;;;;16.20;58.61;98322.28;4969267;28;102916;-83
2023/06/13 04:48:11;;;;;;;6.88;3.70;;;;;;;16.30;58.21;98316.00;4988429;28;104185;-87
2023/06/13 04:50:41;;;;;;;5.33;3.90;;;;;;;16.22;58.50;98319.47;4986133;28;103166;-86
2023/06/13 04:53:12;;;;;;;4.95;4.00;;;;;;;16.39;58.34;98323.94;4983972;28;102812;-75
2023/06/13 04:55:40;;;;;;;5.15;3.45;;;;;;;16.52;58.08;98319.00;4986869;28;102650;-75
2023/06/13 04:58:08;;;;;;;4.20;3.53;;;;;;;16.49;58.09;98319.31;4986574;28;103406;-74
2023/06/13 05:00:36;;;;;;;4.53;3.60;;;;;;;16.84;56.88;98321.06;4987411;28;103507;-77
2023/06/13 05:03:04;;;;;;;4.93;3.40;;;;;;;17.04;55.91;98322.47;4984614;28;103062;-79
2023/06/13 05:05:34;;;;;;;3.60;3.28;;;;;;;17.23;56.27;98321.41;4985867;28;103594;-76
2023/06/13 05:08:03;;;;;;;3.85;3.33;;;;;;;17.39;54.94;98326.78;4981106;28;103935;-77
2023/06/13 05:10:36;;;;;;;3.60;3.30;;;;;;;17.73;54.27;98330.22;4984177;28;103592;-74
2023/06/13 05:13:06;;;;;;;4.90;3.40;;;;;;;17.48;55.76;98331.16;4981540;28;103272;-75
2023/06/13 05:15:34;;;;;;;3.45;3.15;;;;;;;17.34;55.34;98339.78;4986377;28;103998;-75
2023/06/13 05:18:06;;;;;;;4.90;3.40;;;;;;;17.33;55.34;98332.75;4985829;28;104150;-76
2023/06/13 05:20:34;;;;;;;4.57;3.60;;;;;;;17.08;55.39;98329.16;4986059;28;103508;-76
2023/06/13 05:23:02;;;;;;;5.23;3.53;;;;;;;17.19;55.11;98341.38;4987363;28;102880;-76
2023/06/13 05:25:31;;;;;;;4.40;3.42;;;;;;;17.53;54.37;98336.81;4964742;28;102689;-76
2023/06/13 05:28:01;;;;;;;6.00;3.70;;;;;;;17.42;54.81;98326.44;4947000;28;103568;-75
2023/06/13 05:30:32;;;;;;;4.23;3.37;;;;;;;17.61;54.31;98325.34;4945223;28;103217;-76
2023/06/13 05:33:00;;;;;;;5.25;3.40;;;;;;;17.55;54.44;98334.00;4946071;28;102678;-75
2023/06/13 05:35:28;;;;;;;4.32;3.40;;;;;;;17.87;53.96;98326.91;4944842;28;103204;-76
2023/06/13 05:38:04;;;;;;;4.27;3.30;;;;;;;17.74;53.48;98318.53;4943989;28;103454;-77
2023/06/13 05:40:32;;;;;;;3.43;2.87;;;;;;;18.67;52.57;98325.22;4944920;28;103231;-75
2023/06/13 05:43:01;;;;;;;3.60;3.10;;;;;;;18.82;52.17;98323.50;4946121;28;103205;-74
2023/06/13 05:45:29;;;;;;;3.45;2.83;;;;;;;18.81;51.29;98321.84;4934945;28;103447;-74
2023/06/13 05:48:00;;;;;;;4.47;2.97;;;;;;;19.04;49.66;98322.78;4947805;28;103211;-74
2023/06/13 05:50:28;;;;;;;5.55;3.00;;;;;;;18.99;48.12;98324.31;4948184;28;103279;-74
2023/06/13 05:52:55;;;;;;;4.50;2.80;;;;;;;19.25;47.87;98316.00;4949786;28;102717;-74
2023/06/13 05:55:23;;;;;;;3.40;2.40;;;;;;;19.37;46.65;98322.66;4935028;28;103367;-74
2023/06/13 05:57:51;;;;;;;5.45;3.20;;;;;;;19.54;46.26;98329.59;4946152;28;103186;-74
2023/06/13 06:00:21;;;;;;;3.60;2.80;;;;;;;19.40;44.83;98324.97;4948502;28;103174;-74
2023/06/13 06:02:48;;;;;;;4.85;3.05;;;;;;;19.25;44.70;98329.38;4949764;28;102665;-74
2023/06/13 06:05:19;;;;;;;3.58;2.72;;;;;;;19.05;44.52;98332.47;4955891;28;102661;-74
2023/06/13 06:07:47;;;;;;;4.20;2.90;;;;;;;19.16;44.49;98327.75;4953746;28;103370;-75
2023/06/13 06:10:14;;;;;;;3.10;2.80;;;;;;;19.36;44.05;98326.31;4954039;28;103252;-74
2023/06/13 06:12:45;;;;;;;3.65;2.90;;;;;;;19.65;43.65;98318.47;4959009;28;102624;-76
2023/06/13 06:15:13;;;;;;;3.67;2.80;;;;;;;19.95;44.18;98316.78;4957254;28;102624;-75
2023/06/13 06:17:45;;;;;;;4.00;3.10;;;;;;;19.48;43.05;98314.25;4953699;28;103175;-75
2023/06/13 06:20:13;;;;;;;3.53;2.47;;;;;;;19.89;42.52;98307.59;4956892;28;103418;-76
2023/06/13 06:22:44;;;;;;;3.15;2.80;;;;;;;19.85;43.05;98308.13;4954386;28;102863;-75
2023/06/13 06:25:19;;;;;;;5.20;2.80;;;;;;;20.01;41.25;98311.53;4957003;28;102574;-76
2023/06/13 06:27:53;;;;;;;4.37;2.83;;;;;;;20.10;41.61;98310.44;4956023;28;103223;-76
2023/06/13 06:30:21;;;;;;;4.20;2.80;;;;;;;20.10;41.76;98310.44;4956412;28;103315;-75
2023/06/13 06:32:51;;;;;;;3.65;2.78;;;;;;;20.32;41.00;98307.97;4955189;28;102548;-76
2023/06/13 06:35:19;;;;;;;3.78;2.97;;;;;;;20.22;41.29;98300.97;4957141;28;102697;-76
2023/06/13 06:37:47;;;;;;;3.42;2.92;;;;;;;20.46;40.61;98305.31;4958733;28;104183;-76
2023/06/13 06:40:17;;;;;;;3.17;2.70;;;;;;;20.56;40.37;98302.34;4955893;28;102428;-76
2023/06/13 06:42:45;;;;;;;4.30;3.20;;;;;;;20.58;39.78;98311.88;4956433;28;102849;-76
2023/06/13 06:45:20;;;;;;;3.10;2.40;;;;;;;20.88;39.77;98304.72;4955422;28;103056;-76
2023/06/13 06:47:52;;;;;;;3.60;3.20;;;;;;;20.67;39.40;98315.31;4952450;28;103616;-76
2023/06/13 06:50:20;;;;;;;4.40;2.67;;;;;;;20.65;38.84;98315.53;4955590;28;102698;-76
2023/06/13 06:52:48;;;;;;;3.42;3.10;;;;;;;20.40;39.25;98305.19;4945282;28;103124;-76
2023/06/13 06:55:16;;;;;;;3.63;2.70;;;;;;;20.72;38.26;98315.59;4947777;28;102635;-76
2023/06/13 06:57:44;;;;;;;4.40;2.80;;;;;;;20.97;38.48;98318.88;4945471;28;103405;-74
2023/06/13 07:00:14;;;;;;;3.90;2.90;;;;;;;21.07;38.49;98309.53;4937965;28;103181;-75
2023/06/13 07:02:43;;;;;;;3.90;2.97;;;;;;;20.74;39.47;98319.75;4947994;28;102878;-75
2023/06/13 07:05:15;;;;;;;2.97;2.67;;;;;;;21.21;38.62;98322.13;4948460;28;102644;-75
2023/06/13 07:07:44;;;;;;;3.90;2.85;;;;;;;21.31;37.61;98316.44;4948767;28;102723;-75
2023/06/13 07:10:12;;;;;;;3.00;2.70;;;;;;;21.27;37.18;98307.94;4942559;28;103322;-75
2023/06/13 07:12:42;;;;;;;4.22;2.72;;;;;;;21.63;37.77;98309.81;4936353;28;102811;-76
2023/06/13 07:15:10;;;;;;;4.40;2.88;;;;;;;21.46;37.21;98309.19;4929550;28;103230;-75
2023/06/13 07:17:37;;;;;;;3.30;3.00;;;;;;;21.48;37.19;98300.94;4947149;28;103265;-76
2023/06/13 07:20:08;;;;;;;5.00;2.70;;;;;;;21.12;38.76;98307.13;4940098;28;104172;-75
2023/06/13 07:22:37;;;;;;;5.25;3.13;;;;;;;21.76;37.24;98289.28;4945825;28;102602;-75
2023/06/13 07:25:06;;;;;;;5.05;2.78;;;;;;;21.36;37.00;98303.31;4947031;28;103818;-75
2023/06/13 07:27:34;;;;;;;3.80;2.73;;;;;;;21.88;36.55;98297.69;4943087;28;104254;-76
2023/06/13 07:30:02;;;;;;;4.63;3.00;;;;;;;21.82;38.37;98298.44;4930907;28;103467;-76
2023/06/13 07:32:30;;;;;;;5.05;2.97;;;;;;;21.23;37.54;98306.66;4947723;28;102802;-76
2023/06/13 07:34:58;;;;;;;3.75;3.20;;;;;;;21.46;38.33;98298.44;4949966;28;103809;-76
2023/06/13 07:37:33;;;;;;;3.65;2.60;;;;;;;22.19;36.07;98300.91;4946811;28;104248;-76
2023/06/13 07:40:04;;;;;;;2.85;2.65;;;;;;;22.45;35.03;98295.75;4947305;28;103205;-76
2023/06/13 07:42:32;;;;;;;4.15;2.80;;;;;;;22.99;35.52;98298.59;4936070;28;102818;-76
2023/06/13 07:45:00;;;;;;;2.95;2.63;;;;;;;22.87;35.44;98296.66;4943851;28;102859;-76
2023/06/13 07:47:28;;;;;;;4.97;2.90;;;;;;;23.16;34.03;98299.09;4944467;28;103455;-76
2023/06/13 07:49:58;;;;;;;3.70;2.50;;;;;;;22.70;34.63;98300.69;4949849;28;103174;-77
2023/06/13 07:52:26;;;;;;;2.83;2.63;;;;;;;23.67;33.95;98286.03;4944742;28;102659;-77
2023/06/13 07:54:54;;;;;;;2.97;2.60;;;;;;;23.51;33.69;98289.97;4946197;28;102654;-76
2023/06/13 07:57:23;;;;;;;3.13;2.70;;;;;;;23.50;33.57;98284.75;4945450;28;103935;-76
2023/06/13 08:00:16;;;;;;;5.07;2.70;;;;;;;23.12;33.83;98281.69;4945133;28;103233;-76
2023/06/13 08:02:44;;;;;;;4.07;2.78;;;;;;;24.05;32.33;98267.47;4928671;28;102683;-77
2023/06/13 08:05:14;;;;;;;7.53;2.60;;;;;;;24.30;32.42;98265.00;4935524;28;102795;-77
2023/06/13 08:07:45;;;;;;;3.73;2.80;;;;;;;24.59;33.10;98261.88;4949279;28;103460;-76
2023/06/13 08:10:13;;;;;;;3.70;3.17;;;;;;;24.40;31.97;98260.84;4944743;28;103192;-77
2023/06/13 08:12:43;;;;;;;5.17;3.17;;;;;;;23.67;32.96;98268.00;4944810;28;103904;-80
2023/06/13 08:15:11;;;;;;;3.27;2.97;;;;;;;25.10;32.05;98265.50;4946649;28;104169;-79
2023/06/13 08:17:41;;;;;;;4.25;2.80;;;;;;;25.46;31.13;98267.63;4944598;28;104752;-80
2023/06/13 08:20:11;;;;;;;4.73;3.27;;;;;;;24.74;32.08;98274.09;4943980;28;103061;-80
2023/06/13 08:22:40;;;;;;;4.28;3.03;;;;;;;25.74;30.40;98270.81;4929696;28;102631;-81
2023/06/13 08:25:09;;;;;;;4.07;3.00;;;;;;;26.78;30.03;98271.09;4951804;28;102877;-80
2023/06/13 08:27:38;;;;;;;4.67;3.00;;;;;;;26.12;31.37;98270.78;4946348;28;103321;-80
2023/06/13 08:30:09;;;;;;;3.13;2.72;;;;;;;26.09;30.29;98264.97;4946335;28;103236;-80
2023/06/13 08:32:38;;;;;;;3.30;3.00;;;;;;;26.66;30.46;98262.03;4936352;28;102938;-81
2023/06/13 08:35:06;;;;;;;3.72;2.80;;;;;;;27.16;30.81;98257.34;4951287;28;104034;-79
2023/06/13 08:37:35;;;;;;;4.60;3.40;;;;;;;26.62;30.68;98260.81;4948285;28;103263;-80
2023/06/13 08:40:09;;;;;;;4.40;3.25;;;;;;;27.29;29.57;98256.34;4954886;28;103736;-79
2023/06/13 08:42:38;;;;;;;3.25;2.95;;;;;;;27.34;30.75;98257.31;4936562;28;103032;-80
2023/06/13 08:45:08;;;;;;;3.63;2.97;;;;;;;27.47;28.03;98259.91;4949788;28;103848;-79
2023/06/13 08:47:38;;;;;;;4.75;2.95;;;;;;;26.20;29.27;98265.13;4947663;28;104711;-79
2023/06/13 08:50:07;;;;;;;6.20;3.50;;;;;;;25.71;31.17;98260.44;4952121;28;103005;-80
2023/06/13 08:52:39;;;;;;;4.55;2.80;;;;;;;27.10;29.26;98249.28;4947053;28;102750;-81
2023/06/13 08:55:14;;;;;;;3.20;2.90;;;;;;;26.79;29.90;98256.50;4952705;28;103736;-78
2023/06/13 08:57:54;;;;;;;4.50;3.23;;;;;;;25.80;30.66;98261.00;4951456;28;103255;-80
2023/06/13 09:00:24;;;;;;;3.95;3.35;;;;;;;24.75;31.62;98259.56;4955149;28;103314;-79
2023/06/13 09:02:55;;;;;;;3.83;3.10;;;;;;;25.81;30.16;98252.69;4948230;28;102596;-80
2023/06/13 09:05:24;;;;;;;4.60;3.27;;;;;;;27.19;30.04;98250.63;4948239;28;103290;-81
2023/06/13 09:07:53;;;;;;;4.10;3.20;;;;;;;27.78;29.48;98241.72;4937619;28;104053;-80
2023/06/13 09:10:36;;;;;;;4.03;3.30;;;;;;;27.14;30.71;98240.47;4931146;28;103516;-80
2023/06/13 09:13:05;;;;;;;4.18;3.15;;;;;;;27.26;30.25;98237.81;4920154;28;102684;-79
2023/06/13 09:15:35;;;;;;;3.67;3.03;;;;;;;27.03;30.28;98236.63;4947035;28;104206;-79
2023/06/13 09:18:04;;;;;;;3.75;2.97;;;;;;;26.47;30.04;98239.47;4946603;28;102613;-79
2023/06/13 09:20:32;;;;;;;3.63;3.08;;;;;;;27.14;29.81;98236.94;4949950;28;103386;-79
2023/06/13 09:23:01;;;;;;;4.03;2.90;;;;;;;27.95;29.41;98232.69;4949040;28;103153;-80
2023/06/13 09:25:33;;;;;;;4.38;3.05;;;;;;;27.87;28.63;98229.50;4946744;28;104789;-80
2023/06/13 09:28:31;;;;;;;3.65;3.22;;;;;;;27.58;28.68;98242.00;4918841;28;104159;-79
2023/06/13 09:31:04;;;;;;;4.82;3.13;;;;;;;27.54;30.24;98235.38;4945482;28;104056;-79
2023/06/13 09:33:32;;;;;;;6.00;3.05;;;;;;;25.72;30.70;98248.59;4945979;28;102926;-80
2023/06/13 09:36:02;;;;;;;3.97;3.05;;;;;;;27.47;29.51;98246.34;4947954;28;104124;-80
2023/06/13 09:38:35;;;;;;;3.53;3.10;;;;;;;27.78;29.76;98242.56;4932585;28;105123;-80
2023/06/13 09:41:05;;;;;;;4.40;3.28;;;;;;;28.47;27.92;98246.47;4948027;28;103101;-80
2023/06/13 09:43:33;;;;;;;4.32;3.00;;;;;;;29.43;27.18;98235.03;4948724;28;102800;-80
2023/06/13 09:46:01;;;;;;;3.88;3.03;;;;;;;28.93;28.61;98230.19;4948821;28;102650;-80
2023/06/13 09:48:30;;;;;;;3.37;2.93;;;;;;;30.01;28.46;98227.44;4948816;28;104488;-79
2023/06/13 09:51:04;;;;;;;3.80;2.90;;;;;;;29.98;27.13;98222.50;4945865;28;103650;-79
2023/06/13 09:53:33;;;;;;;4.53;2.87;;;;;;;29.89;27.11;98218.53;4944059;28;103154;-79
2023/06/13 09:56:04;;;;;;;4.10;3.13;;;;;;;29.94;28.11;98225.97;4929669;28;103326;-76
2023/06/13 09:58:32;;;;;;;4.97;3.17;;;;;;;28.28;27.95;98226.75;4925760;28;104455;-76
2023/06/13 10:01:03;;;;;;;4.55;3.00;;;;;;;27.97;26.78;98224.31;4945027;28;103332;-76
2023/06/13 10:03:33;;;;;;;3.87;3.20;;;;;;;27.68;26.64;98215.13;4945494;28;102825;-77
2023/06/13 10:06:01;;;;;;;3.80;3.15;;;;;;;29.50;25.41;98216.69;4937459;28;103387;-78
2023/06/13 10:08:31;;;;;;;3.35;3.05;;;;;;;29.20;26.49;98214.16;4951771;28;103278;-82
2023/06/13 10:11:03;;;;;;;5.63;3.13;;;;;;;27.50;27.11;98217.94;4949287;28;103191;-81
2023/06/13 10:13:36;;;;;;;4.50;2.97;;;;;;;28.57;27.10;98205.97;4953351;28;102848;-81
2023/06/13 10:16:05;;;;;;;5.27;3.10;;;;;;;28.22;29.20;98207.84;4959908;28;103959;-83
2023/06/13 10:18:38;;;;;;;4.27;3.00;;;;;;;27.58;26.65;98198.59;4962659;28;102972;-81
2023/06/13 10:21:07;;;;;;;3.47;2.88;;;;;;;27.99;25.37;98190.44;4948014;28;102677;-78
2023/06/13 10:23:41;;;;;;;4.40;3.17;;;;;;;27.67;28.03;98193.69;4948061;28;102775;-78
2023/06/13 10:26:15;;;;;;;4.05;2.90;;;;;;;28.60;26.49;98190.00;4950256;28;103180;-81
2023/06/13 10:28:59;;;;;;;4.72;3.08;;;;;;;30.02;26.69;98187.44;4947611;28;104233;-79
2023/06/13 10:31:40;;;;;;;3.20;2.85;;;;;;;28.48;25.85;98193.81;4947768;28;103240;-80
2023/06/13 10:34:34;;;;;;;6.45;3.00;;;;;;;27.73;27.73;98203.63;4950315;28;102802;-77
2023/06/13 10:37:32;;;;;;;3.20;2.90;;;;;;;29.64;25.87;98199.00;4947210;28;102657;-80
2023/06/13 10:40:28;;;;;;;4.82;2.95;;;;;;;30.67;26.65;98193.94;4948104;28;103259;-80
2023/06/13 10:43:05;;;;;;;3.35;3.05;;;;;;;30.89;24.36;98202.13;4932957;28;103296;-80
2023/06/13 10:45:35;;;;;;;3.97;3.03;;;;;;;30.56;26.46;98197.59;4945827;28;103029;-79
2023/06/13 10:48:06;;;;;;;5.25;3.15;;;;;;;30.63;25.93;98194.66;4949455;28;103167;-76
2023/06/13 10:50:38;;;;;;;3.33;2.90;;;;;;;31.06;24.03;98191.19;4949650;28;103976;-76
2023/06/13 10:53:08;;;;;;;6.88;3.10;;;;;;;30.11;24.08;98175.88;4946426;28;103222;-78
2023/06/13 10:55:38;;;;;;;4.28;2.88;;;;;;;28.70;25.76;98198.44;4946717;28;102684;-78
2023/06/13 10:58:11;;;;;;;3.95;3.00;;;;;;;28.09;25.49;98179.88;4944984;28;102731;-77
2023/06/13 11:00:40;;;;;;;4.97;3.03;;;;;;;28.39;25.81;98178.91;4949973;28;103242;-79
2023/06/13 11:03:10;;;;;;;3.38;2.95;;;;;;;29.15;25.67;98184.97;4962072;28;103444;-79
2023/06/13 11:05:49;;;;;;;5.00;3.20;;;;;;;29.76;23.97;98169.81;4968113;28;102891;-81
2023/06/13 11:08:20;;;;;;;4.87;2.90;;;;;;;30.93;24.11;98176.84;4945824;28;102807;-77
2023/06/13 11:10:49;;;;;;;3.50;2.97;;;;;;;29.38;24.66;98173.22;4964256;28;103273;-76
2023/06/13 11:13:20;;;;;;;4.33;3.00;;;;;;;27.71;26.65;98163.13;4962708;28;103242;-77
2023/06/13 11:15:50;;;;;;;3.67;3.10;;;;;;;29.24;24.56;98180.84;4964744;28;102602;-76
2023/06/13 11:18:30;;;;;;;3.50;2.90;;;;;;;30.85;24.18;98160.09;4965224;28;103070;-76
2023/06/13 11:21:01;;;;;;;4.55;3.13;;;;;;;30.84;23.42;98166.63;4964705;28;103474;-76
2023/06/13 11:23:44;;;;;;;5.22;3.13;;;;;;;29.07;25.96;98166.31;4965396;28;103229;-76
2023/06/13 11:26:12;;;;;;;5.27;2.97;;;;;;;29.81;25.50;98156.34;4963531;28;102711;-75
2023/06/13 11:28:40;;;;;;;5.00;2.97;;;;;;;28.83;24.97;98163.91;4956053;28;102929;-76
2023/06/13 11:31:09;;;;;;;4.22;3.03;;;;;;;27.84;26.69;98159.38;4946955;28;104478;-76
2023/06/13 11:33:42;;;;;;;3.78;2.70;;;;;;;28.58;26.68;98167.69;4965273;28;103144;-76
2023/06/13 11:36:12;;;;;;;4.57;3.20;;;;;;;29.86;25.07;98165.41;4957627;28;102859;-76
2023/06/13 11:38:44;;;;;;;3.55;3.25;;;;;;;28.85;26.05;98157.16;4959295;28;104322;-77